sensor_id;sensor_type;location;lat;lon;timestamp;pressure;altitude;pressure_sealevel;temperature;humidity
36932;BME280;22847;42.654;23.370;2023-08-07T00:01:42;94090.59;;;25.28;nan
36932;BME280;22847;42.654;23.370;2023-08-07T00:04:08;94103.94;;;25.50;nan
36932;BME280;22847;42.654;23.370;2023-08-07T00:06:33;94123.94;;;25.69;nan
36932;BME280;22847;42.654;23.370;2023-08-07T00:08:59;94007.69;;;25.13;nan
36932;BME280;22847;42.654;23.370;2023-08-07T00:11:24;94009.38;;;25.19;nan
36932;BME280;22847;42.654;23.370;2023-08-07T00:13:49;94089.34;;;25.58;nan
36932;BME280;22847;42.654;23.370;2023-08-07T00:16:15;94077.44;;;25.44;nan
36932;BME280;22847;42.654;23.370;2023-08-07T00:18:40;94111.22;;;25.55;nan
36932;BME280;22847;42.654;23.370;2023-08-07T00:21:05;93998.19;;;24.79;nan
36932;BME280;22847;42.654;23.370;2023-08-07T00:23:31;94112.38;;;24.99;nan
36932;BME280;22847;42.654;23.370;2023-08-07T00:25:56;94110.97;;;24.58;nan
36932;BME280;22847;42.654;23.370;2023-08-07T00:28:22;94098.84;;;24.50;nan
36932;BME280;22847;42.654;23.370;2023-08-07T00:30:47;94107.09;;;24.49;nan
36932;BME280;22847;42.654;23.370;2023-08-07T00:33:12;94101.38;;;24.40;nan
36932;BME280;22847;42.654;23.370;2023-08-07T00:35:38;94087.38;;;24.33;nan
36932;BME280;22847;42.654;23.370;2023-08-07T00:38:04;94052.13;;;24.26;nan
36932;BME280;22847;42.654;23.370;2023-08-07T00:40:36;94112.44;;;24.49;nan
36932;BME280;22847;42.654;23.370;2023-08-07T00:43:02;94024.09;;;23.90;nan
36932;BME280;22847;42.654;23.370;2023-08-07T00:45:28;94111.13;;;24.34;nan
36932;BME280;22847;42.654;23.370;2023-08-07T00:47:54;94026.00;;;23.78;nan
36932;BME280;22847;42.654;23.370;2023-08-07T00:50:19;94077.94;;;24.09;nan
36932;BME280;22847;42.654;23.370;2023-08-07T00:52:45;94117.03;;;24.36;nan
36932;BME280;22847;42.654;23.370;2023-08-07T00:55:10;94130.78;;;24.45;nan
36932;BME280;22847;42.654;23.370;2023-08-07T00:57:36;93988.97;;;23.60;nan
36932;BME280;22847;42.654;23.370;2023-08-07T01:00:02;94086.59;;;24.16;nan
36932;BME280;22847;42.654;23.370;2023-08-07T01:02:28;94151.81;;;24.63;nan
36932;BME280;22847;42.654;23.370;2023-08-07T01:04:53;94140.03;;;24.76;nan
36932;BME280;22847;42.654;23.370;2023-08-07T01:07:19;94135.81;;;24.97;nan
36932;BME280;22847;42.654;23.370;2023-08-07T01:09:44;94061.16;;;24.63;nan
36932;BME280;22847;42.654;23.370;2023-08-07T01:12:16;94146.66;;;25.28;nan
36932;BME280;22847;42.654;23.370;2023-08-07T01:15:04;94163.53;;;25.12;nan
36932;BME280;22847;42.654;23.370;2023-08-07T01:17:32;94188.00;;;25.09;nan
36932;BME280;22847;42.654;23.370;2023-08-07T01:20:00;94176.47;;;24.70;nan
36932;BME280;22847;42.654;23.370;2023-08-07T01:22:25;94060.56;;;24.06;nan
36932;BME280;22847;42.654;23.370;2023-08-07T01:24:51;94171.84;;;24.99;nan
36932;BME280;22847;42.654;23.370;2023-08-07T01:34:58;94167.19;;;24.11;nan
36932;BME280;22847;42.654;23.370;2023-08-07T01:37:28;94166.69;;;24.26;nan
36932;BME280;22847;42.654;23.370;2023-08-07T01:39:54;94095.72;;;23.46;nan
36932;BME280;22847;42.654;23.370;2023-08-07T01:42:21;94144.13;;;23.72;nan
36932;BME280;22847;42.654;23.370;2023-08-07T01:44:46;94050.78;;;23.22;nan
36932;BME280;22847;42.654;23.370;2023-08-07T01:47:12;94145.28;;;23.92;nan
36932;BME280;22847;42.654;23.370;2023-08-07T01:49:37;94116.00;;;23.92;nan
36932;BME280;22847;42.654;23.370;2023-08-07T01:52:04;94132.06;;;24.14;nan
36932;BME280;22847;42.654;23.370;2023-08-07T01:54:30;94033.47;;;23.64;nan
36932;BME280;22847;42.654;23.370;2023-08-07T01:56:55;94173.88;;;24.59;nan
36932;BME280;22847;42.654;23.370;2023-08-07T01:59:21;94150.22;;;24.62;nan
36932;BME280;22847;42.654;23.370;2023-08-07T02:01:46;94171.16;;;24.87;nan
36932;BME280;22847;42.654;23.370;2023-08-07T02:04:11;94164.44;;;24.84;nan
36932;BME280;22847;42.654;23.370;2023-08-07T02:06:37;94151.59;;;24.65;nan
36932;BME280;22847;42.654;23.370;2023-08-07T02:09:02;94176.34;;;24.94;nan
36932;BME280;22847;42.654;23.370;2023-08-07T02:11:27;94178.25;;;24.98;nan
36932;BME280;22847;42.654;23.370;2023-08-07T02:13:53;94156.53;;;24.90;nan
36932;BME280;22847;42.654;23.370;2023-08-07T02:16:18;94186.25;;;24.98;nan
36932;BME280;22847;42.654;23.370;2023-08-07T02:18:44;94191.41;;;25.05;nan
36932;BME280;22847;42.654;23.370;2023-08-07T02:21:09;94185.34;;;25.09;nan
36932;BME280;22847;42.654;23.370;2023-08-07T02:23:34;94178.00;;;25.00;nan
36932;BME280;22847;42.654;23.370;2023-08-07T02:26:01;94097.25;;;24.49;nan
36932;BME280;22847;42.654;23.370;2023-08-07T02:28:26;94164.03;;;24.93;nan
36932;BME280;22847;42.654;23.370;2023-08-07T02:30:52;94191.75;;;24.92;nan
36932;BME280;22847;42.654;23.370;2023-08-07T02:33:19;94178.16;;;24.60;nan
36932;BME280;22847;42.654;23.370;2023-08-07T02:35:45;94130.03;;;24.16;nan
36932;BME280;22847;42.654;23.370;2023-08-07T02:38:11;94199.81;;;24.63;nan
36932;BME280;22847;42.654;23.370;2023-08-07T02:40:36;94100.69;;;23.99;nan
36932;BME280;22847;42.654;23.370;2023-08-07T02:43:02;94191.56;;;24.65;nan
36932;BME280;22847;42.654;23.370;2023-08-07T02:45:28;94106.25;;;24.15;nan
36932;BME280;22847;42.654;23.370;2023-08-07T02:47:53;94179.22;;;24.75;nan
36932;BME280;22847;42.654;23.370;2023-08-07T02:50:18;94194.13;;;24.88;nan
36932;BME280;22847;42.654;23.370;2023-08-07T02:52:44;94143.78;;;24.58;nan
36932;BME280;22847;42.654;23.370;2023-08-07T02:55:09;94143.44;;;24.55;nan
36932;BME280;22847;42.654;23.370;2023-08-07T02:57:34;94183.69;;;24.86;nan
36932;BME280;22847;42.654;23.370;2023-08-07T03:00:00;94185.28;;;24.87;nan
36932;BME280;22847;42.654;23.370;2023-08-07T03:02:25;94208.16;;;25.00;nan
36932;BME280;22847;42.654;23.370;2023-08-07T03:04:51;94123.50;;;24.40;nan
36932;BME280;22847;42.654;23.370;2023-08-07T03:07:16;94214.72;;;24.93;nan
36932;BME280;22847;42.654;23.370;2023-08-07T03:09:45;94192.06;;;24.78;nan
36932;BME280;22847;42.654;23.370;2023-08-07T03:12:10;94223.53;;;24.93;nan
36932;BME280;22847;42.654;23.370;2023-08-07T03:14:36;94222.72;;;24.93;nan
36932;BME280;22847;42.654;23.370;2023-08-07T03:17:01;94204.13;;;24.81;nan
36932;BME280;22847;42.654;23.370;2023-08-07T03:19:28;94211.84;;;24.82;nan
36932;BME280;22847;42.654;23.370;2023-08-07T03:21:53;94230.81;;;24.98;nan
36932;BME280;22847;42.654;23.370;2023-08-07T03:24:19;94232.34;;;24.94;nan
36932;BME280;22847;42.654;23.370;2023-08-07T03:26:44;94143.94;;;24.35;nan
36932;BME280;22847;42.654;23.370;2023-08-07T03:29:12;94244.69;;;24.83;nan
36932;BME280;22847;42.654;23.370;2023-08-07T03:31:38;94239.09;;;24.68;nan
36932;BME280;22847;42.654;23.370;2023-08-07T03:34:03;94080.69;;;23.69;nan
36932;BME280;22847;42.654;23.370;2023-08-07T03:36:29;94253.00;;;24.70;nan
36932;BME280;22847;42.654;23.370;2023-08-07T03:38:54;94144.97;;;24.06;nan
36932;BME280;22847;42.654;23.370;2023-08-07T03:41:19;94244.28;;;24.58;nan
36932;BME280;22847;42.654;23.370;2023-08-07T03:43:45;94256.06;;;24.62;nan
36932;BME280;22847;42.654;23.370;2023-08-07T03:46:11;94263.66;;;24.70;nan
36932;BME280;22847;42.654;23.370;2023-08-07T03:48:37;94182.91;;;24.24;nan
36932;BME280;22847;42.654;23.370;2023-08-07T03:51:07;94244.34;;;24.63;nan
36932;BME280;22847;42.654;23.370;2023-08-07T03:53:36;94270.63;;;24.71;nan
36932;BME280;22847;42.654;23.370;2023-08-07T03:56:02;94262.03;;;24.69;nan
36932;BME280;22847;42.654;23.370;2023-08-07T03:58:27;94250.72;;;24.62;nan
36932;BME280;22847;42.654;23.370;2023-08-07T04:00:53;94195.28;;;24.30;nan
36932;BME280;22847;42.654;23.370;2023-08-07T04:03:19;94278.72;;;24.76;nan
36932;BME280;22847;42.654;23.370;2023-08-07T04:05:45;94264.63;;;24.64;nan
36932;BME280;22847;42.654;23.370;2023-08-07T04:08:10;94215.94;;;24.23;nan
36932;BME280;22847;42.654;23.370;2023-08-07T04:10:36;94281.94;;;24.78;nan
36932;BME280;22847;42.654;23.370;2023-08-07T04:13:02;94186.06;;;24.21;nan
36932;BME280;22847;42.654;23.370;2023-08-07T04:15:27;94295.03;;;24.79;nan
36932;BME280;22847;42.654;23.370;2023-08-07T04:17:53;94297.84;;;24.73;nan
36932;BME280;22847;42.654;23.370;2023-08-07T04:20:18;94303.59;;;24.81;nan
36932;BME280;22847;42.654;23.370;2023-08-07T04:22:45;94261.56;;;24.72;nan
36932;BME280;22847;42.654;23.370;2023-08-07T04:25:11;94295.78;;;25.42;nan
36932;BME280;22847;42.654;23.370;2023-08-07T04:27:37;94277.97;;;26.07;nan
36932;BME280;22847;42.654;23.370;2023-08-07T04:30:05;94205.22;;;26.00;nan
36932;BME280;22847;42.654;23.370;2023-08-07T04:32:30;94215.31;;;25.98;nan
36932;BME280;22847;42.654;23.370;2023-08-07T04:34:55;94300.00;;;26.36;nan
36932;BME280;22847;42.654;23.370;2023-08-07T04:37:21;94299.88;;;26.26;nan
36932;BME280;22847;42.654;23.370;2023-08-07T04:39:47;94279.28;;;25.83;nan
36932;BME280;22847;42.654;23.370;2023-08-07T04:42:13;94309.78;;;25.87;nan
36932;BME280;22847;42.654;23.370;2023-08-07T04:44:38;94277.72;;;25.65;nan
36932;BME280;22847;42.654;23.370;2023-08-07T04:47:04;94226.59;;;25.40;nan
36932;BME280;22847;42.654;23.370;2023-08-07T04:49:29;94227.72;;;25.83;nan
36932;BME280;22847;42.654;23.370;2023-08-07T04:51:55;94304.28;;;26.64;nan
36932;BME280;22847;42.654;23.370;2023-08-07T04:54:20;94278.09;;;26.66;nan
36932;BME280;22847;42.654;23.370;2023-08-07T04:56:46;94292.84;;;26.95;nan
36932;BME280;22847;42.654;23.370;2023-08-07T04:59:11;94277.59;;;26.96;nan
36932;BME280;22847;42.654;23.370;2023-08-07T05:01:37;94274.16;;;27.00;nan
36932;BME280;22847;42.654;23.370;2023-08-07T05:04:03;94275.03;;;27.11;nan
36932;BME280;22847;42.654;23.370;2023-08-07T05:06:30;94212.69;;;26.79;nan
36932;BME280;22847;42.654;23.370;2023-08-07T05:08:56;94293.44;;;27.39;nan
36932;BME280;22847;42.654;23.370;2023-08-07T05:11:21;94294.91;;;27.52;nan
36932;BME280;22847;42.654;23.370;2023-08-07T05:13:47;94209.69;;;27.07;nan
36932;BME280;22847;42.654;23.370;2023-08-07T05:16:12;94293.34;;;27.61;nan
36932;BME280;22847;42.654;23.370;2023-08-07T05:18:37;94278.28;;;27.50;nan
36932;BME280;22847;42.654;23.370;2023-08-07T05:21:03;94207.78;;;27.02;nan
36932;BME280;22847;42.654;23.370;2023-08-07T05:23:28;94183.25;;;26.79;nan
36932;BME280;22847;42.654;23.370;2023-08-07T05:25:54;94260.75;;;27.32;nan
36932;BME280;22847;42.654;23.370;2023-08-07T05:28:19;94267.16;;;27.31;nan
36932;BME280;22847;42.654;23.370;2023-08-07T05:30:44;94255.97;;;27.02;nan
36932;BME280;22847;42.654;23.370;2023-08-07T05:33:10;94284.25;;;26.93;nan
36932;BME280;22847;42.654;23.370;2023-08-07T05:35:38;94287.72;;;27.26;nan
36932;BME280;22847;42.654;23.370;2023-08-07T05:38:03;94201.97;;;26.79;nan
36932;BME280;22847;42.654;23.370;2023-08-07T05:40:29;94196.47;;;26.32;nan
36932;BME280;22847;42.654;23.370;2023-08-07T05:42:55;94285.28;;;26.87;nan
36932;BME280;22847;42.654;23.370;2023-08-07T05:45:20;94285.91;;;26.99;nan
36932;BME280;22847;42.654;23.370;2023-08-07T05:47:46;94187.38;;;26.59;nan
36932;BME280;22847;42.654;23.370;2023-08-07T05:50:11;94288.06;;;27.02;nan
36932;BME280;22847;42.654;23.370;2023-08-07T05:52:36;94286.41;;;26.91;nan
36932;BME280;22847;42.654;23.370;2023-08-07T05:55:03;94274.03;;;26.85;nan
36932;BME280;22847;42.654;23.370;2023-08-07T05:57:29;94205.47;;;26.52;nan
36932;BME280;22847;42.654;23.370;2023-08-07T05:59:54;94217.38;;;26.67;nan
36932;BME280;22847;42.654;23.370;2023-08-07T06:02:19;94295.22;;;27.24;nan
36932;BME280;22847;42.654;23.370;2023-08-07T06:04:45;94304.34;;;27.28;nan
36932;BME280;22847;42.654;23.370;2023-08-07T06:07:10;94148.50;;;26.47;nan
36932;BME280;22847;42.654;23.370;2023-08-07T06:09:36;94295.50;;;27.27;nan
36932;BME280;22847;42.654;23.370;2023-08-07T06:12:01;94292.31;;;27.30;nan
36932;BME280;22847;42.654;23.370;2023-08-07T06:14:27;94279.00;;;27.40;nan
36932;BME280;22847;42.654;23.370;2023-08-07T06:16:53;94281.59;;;27.30;nan
36932;BME280;22847;42.654;23.370;2023-08-07T06:19:19;94295.22;;;26.92;nan
36932;BME280;22847;42.654;23.370;2023-08-07T06:21:47;94283.06;;;26.84;nan
36932;BME280;22847;42.654;23.370;2023-08-07T06:24:13;94275.47;;;26.71;nan
36932;BME280;22847;42.654;23.370;2023-08-07T06:26:38;94284.09;;;26.78;nan
36932;BME280;22847;42.654;23.370;2023-08-07T06:29:03;94277.03;;;26.94;nan
36932;BME280;22847;42.654;23.370;2023-08-07T06:31:29;94270.91;;;26.72;nan
36932;BME280;22847;42.654;23.370;2023-08-07T06:33:54;94267.22;;;26.46;nan
36932;BME280;22847;42.654;23.370;2023-08-07T06:36:20;94272.50;;;26.19;nan
36932;BME280;22847;42.654;23.370;2023-08-07T06:38:46;94276.91;;;26.08;nan
36932;BME280;22847;42.654;23.370;2023-08-07T06:41:12;94270.53;;;26.31;nan
36932;BME280;22847;42.654;23.370;2023-08-07T06:43:37;94257.56;;;26.45;nan
36932;BME280;22847;42.654;23.370;2023-08-07T06:46:03;94208.75;;;26.06;nan
36932;BME280;22847;42.654;23.370;2023-08-07T06:48:28;94283.53;;;26.49;nan
36932;BME280;22847;42.654;23.370;2023-08-07T06:50:54;94275.69;;;26.64;nan
36932;BME280;22847;42.654;23.370;2023-08-07T06:53:19;94267.78;;;26.53;nan
36932;BME280;22847;42.654;23.370;2023-08-07T06:55:45;94198.81;;;26.23;nan
36932;BME280;22847;42.654;23.370;2023-08-07T06:58:11;94293.75;;;26.79;nan
36932;BME280;22847;42.654;23.370;2023-08-07T07:00:37;94191.28;;;26.47;nan
36932;BME280;22847;42.654;23.370;2023-08-07T07:03:03;94279.66;;;26.89;nan
36932;BME280;22847;42.654;23.370;2023-08-07T07:05:29;94261.78;;;26.68;nan
36932;BME280;22847;42.654;23.370;2023-08-07T07:07:55;94211.47;;;26.33;nan
36932;BME280;22847;42.654;23.370;2023-08-07T07:10:21;94274.88;;;26.91;nan
36932;BME280;22847;42.654;23.370;2023-08-07T07:12:46;94276.38;;;26.82;nan
36932;BME280;22847;42.654;23.370;2023-08-07T07:15:13;94256.25;;;26.74;nan
36932;BME280;22847;42.654;23.370;2023-08-07T07:17:38;94265.91;;;26.80;nan
36932;BME280;22847;42.654;23.370;2023-08-07T07:20:04;94267.03;;;26.57;nan
36932;BME280;22847;42.654;23.370;2023-08-07T07:22:30;94264.59;;;26.07;nan
36932;BME280;22847;42.654;23.370;2023-08-07T07:24:55;94281.22;;;26.31;nan
36932;BME280;22847;42.654;23.370;2023-08-07T07:27:21;94188.75;;;25.87;nan
36932;BME280;22847;42.654;23.370;2023-08-07T07:29:48;94271.38;;;26.37;nan
36932;BME280;22847;42.654;23.370;2023-08-07T07:32:13;94256.84;;;26.28;nan
36932;BME280;22847;42.654;23.370;2023-08-07T07:34:39;94267.97;;;26.19;nan
36932;BME280;22847;42.654;23.370;2023-08-07T07:37:04;94305.22;;;26.26;nan
36932;BME280;22847;42.654;23.370;2023-08-07T07:39:29;94283.53;;;26.23;nan
36932;BME280;22847;42.654;23.370;2023-08-07T07:41:55;94271.84;;;26.29;nan
36932;BME280;22847;42.654;23.370;2023-08-07T07:44:20;94271.16;;;26.65;nan
36932;BME280;22847;42.654;23.370;2023-08-07T07:46:46;94246.72;;;26.56;nan
36932;BME280;22847;42.654;23.370;2023-08-07T07:49:11;94278.84;;;26.88;nan
36932;BME280;22847;42.654;23.370;2023-08-07T07:51:37;94261.41;;;27.13;nan
36932;BME280;22847;42.654;23.370;2023-08-07T07:54:02;94287.63;;;27.11;nan
36932;BME280;22847;42.654;23.370;2023-08-07T07:56:28;94264.44;;;27.26;nan
36932;BME280;22847;42.654;23.370;2023-08-07T07:58:53;94255.69;;;27.36;nan
36932;BME280;22847;42.654;23.370;2023-08-07T08:01:19;94208.56;;;27.40;nan
36932;BME280;22847;42.654;23.370;2023-08-07T08:03:44;94183.75;;;27.49;nan
36932;BME280;22847;42.654;23.370;2023-08-07T08:06:13;94256.59;;;28.04;nan
36932;BME280;22847;42.654;23.370;2023-08-07T08:08:39;94266.19;;;27.89;nan
36932;BME280;22847;42.654;23.370;2023-08-07T08:11:04;94243.00;;;27.63;nan
36932;BME280;22847;42.654;23.370;2023-08-07T08:13:30;94263.94;;;27.71;nan
36932;BME280;22847;42.654;23.370;2023-08-07T08:15:55;94245.44;;;27.70;nan
36932;BME280;22847;42.654;23.370;2023-08-07T08:18:21;94261.50;;;27.70;nan
36932;BME280;22847;42.654;23.370;2023-08-07T08:20:46;94192.66;;;27.18;nan
36932;BME280;22847;42.654;23.370;2023-08-07T08:23:11;94169.09;;;27.15;nan
36932;BME280;22847;42.654;23.370;2023-08-07T08:25:37;94259.19;;;27.83;nan
36932;BME280;22847;42.654;23.370;2023-08-07T08:28:03;94041.34;;;26.58;nan
36932;BME280;22847;42.654;23.370;2023-08-07T08:30:28;94252.53;;;27.91;nan
36932;BME280;22847;42.654;23.370;2023-08-07T08:32:54;94171.75;;;27.67;nan
36932;BME280;22847;42.654;23.370;2023-08-07T08:35:20;94258.34;;;28.35;nan
36932;BME280;22847;42.654;23.370;2023-08-07T08:37:45;94166.88;;;27.54;nan
36932;BME280;22847;42.654;23.370;2023-08-07T08:40:11;94246.25;;;27.70;nan
36932;BME280;22847;42.654;23.370;2023-08-07T08:42:44;94217.75;;;27.49;nan
36932;BME280;22847;42.654;23.370;2023-08-07T08:45:13;94253.47;;;27.70;nan
36932;BME280;22847;42.654;23.370;2023-08-07T08:47:39;94249.69;;;27.56;nan
36932;BME280;22847;42.654;23.370;2023-08-07T08:50:10;94235.34;;;27.40;nan
36932;BME280;22847;42.654;23.370;2023-08-07T08:52:38;94253.06;;;27.46;nan
36932;BME280;22847;42.654;23.370;2023-08-07T08:55:04;94250.09;;;27.47;nan
36932;BME280;22847;42.654;23.370;2023-08-07T08:57:32;94238.72;;;27.62;nan
36932;BME280;22847;42.654;23.370;2023-08-07T08:59:58;94218.41;;;27.76;nan
36932;BME280;22847;42.654;23.370;2023-08-07T09:02:24;94245.81;;;27.88;nan
36932;BME280;22847;42.654;23.370;2023-08-07T09:04:50;94236.91;;;27.83;nan
36932;BME280;22847;42.654;23.370;2023-08-07T09:07:15;94203.38;;;27.70;nan
36932;BME280;22847;42.654;23.370;2023-08-07T09:09:45;94224.06;;;27.80;nan
36932;BME280;22847;42.654;23.370;2023-08-07T09:12:16;94221.44;;;27.90;nan
36932;BME280;22847;42.654;23.370;2023-08-07T09:14:46;94140.66;;;27.61;nan
36932;BME280;22847;42.654;23.370;2023-08-07T09:17:13;94150.19;;;28.04;nan
36932;BME280;22847;42.654;23.370;2023-08-07T09:19:40;94223.75;;;28.44;nan
36932;BME280;22847;42.654;23.370;2023-08-07T09:22:05;94227.78;;;28.61;nan
36932;BME280;22847;42.654;23.370;2023-08-07T09:24:32;94154.25;;;28.37;nan
36932;BME280;22847;42.654;23.370;2023-08-07T09:26:58;94136.03;;;28.19;nan
36932;BME280;22847;42.654;23.370;2023-08-07T09:29:24;94204.16;;;28.43;nan
36932;BME280;22847;42.654;23.370;2023-08-07T09:31:49;94218.13;;;28.55;nan
36932;BME280;22847;42.654;23.370;2023-08-07T09:34:19;94122.56;;;28.09;nan
36932;BME280;22847;42.654;23.370;2023-08-07T09:36:45;94194.78;;;28.46;nan
36932;BME280;22847;42.654;23.370;2023-08-07T09:39:10;94200.97;;;28.66;nan
36932;BME280;22847;42.654;23.370;2023-08-07T09:41:36;94198.59;;;28.85;nan
36932;BME280;22847;42.654;23.370;2023-08-07T09:44:10;94113.97;;;28.02;nan
36932;BME280;22847;42.654;23.370;2023-08-07T09:46:43;94127.69;;;28.20;nan
36932;BME280;22847;42.654;23.370;2023-08-07T09:49:08;94186.22;;;28.59;nan
36932;BME280;22847;42.654;23.370;2023-08-07T09:51:47;94194.56;;;28.82;nan
36932;BME280;22847;42.654;23.370;2023-08-07T09:54:13;94202.09;;;28.75;nan
36932;BME280;22847;42.654;23.370;2023-08-07T09:56:43;94172.00;;;28.58;nan
36932;BME280;22847;42.654;23.370;2023-08-07T09:59:12;94120.19;;;28.32;nan
36932;BME280;22847;42.654;23.370;2023-08-07T10:01:38;94201.28;;;28.90;nan
36932;BME280;22847;42.654;23.370;2023-08-07T10:04:05;94197.53;;;28.81;nan
36932;BME280;22847;42.654;23.370;2023-08-07T10:06:30;94131.22;;;28.41;nan
36932;BME280;22847;42.654;23.370;2023-08-07T10:08:57;94185.41;;;28.58;nan
36932;BME280;22847;42.654;23.370;2023-08-07T10:11:25;94120.41;;;28.06;nan
36932;BME280;22847;42.654;23.370;2023-08-07T10:13:50;94204.72;;;28.50;nan
36932;BME280;22847;42.654;23.370;2023-08-07T10:16:16;94200.97;;;28.41;nan
36932;BME280;22847;42.654;23.370;2023-08-07T10:18:41;94206.88;;;28.53;nan
36932;BME280;22847;42.654;23.370;2023-08-07T10:21:07;94203.13;;;28.59;nan
36932;BME280;22847;42.654;23.370;2023-08-07T10:23:36;94148.88;;;28.37;nan
36932;BME280;22847;42.654;23.370;2023-08-07T10:26:06;94194.56;;;28.88;nan
36932;BME280;22847;42.654;23.370;2023-08-07T10:28:35;94205.84;;;28.90;nan
36932;BME280;22847;42.654;23.370;2023-08-07T10:31:06;94044.81;;;27.93;nan
36932;BME280;22847;42.654;23.370;2023-08-07T10:33:32;94129.06;;;28.38;nan
36932;BME280;22847;42.654;23.370;2023-08-07T10:35:58;94126.34;;;28.13;nan
36932;BME280;22847;42.654;23.370;2023-08-07T10:38:28;94189.16;;;28.52;nan
36932;BME280;22847;42.654;23.370;2023-08-07T10:40:59;94197.78;;;28.74;nan
36932;BME280;22847;42.654;23.370;2023-08-07T10:43:25;94191.03;;;28.57;nan
36932;BME280;22847;42.654;23.370;2023-08-07T10:45:53;94187.03;;;28.74;nan
36932;BME280;22847;42.654;23.370;2023-08-07T10:48:18;94196.16;;;29.04;nan
36932;BME280;22847;42.654;23.370;2023-08-07T10:50:55;94104.38;;;28.26;nan
36932;BME280;22847;42.654;23.370;2023-08-07T10:53:42;94186.25;;;28.89;nan
36932;BME280;22847;42.654;23.370;2023-08-07T10:58:41;94169.84;;;29.01;nan
36932;BME280;22847;42.654;23.370;2023-08-07T11:04:06;94131.50;;;28.90;nan
36932;BME280;22847;42.654;23.370;2023-08-07T11:06:33;94167.16;;;29.16;nan
36932;BME280;22847;42.654;23.370;2023-08-07T11:09:00;94176.56;;;28.73;nan
36932;BME280;22847;42.654;23.370;2023-08-07T11:11:45;94076.72;;;28.00;nan
36932;BME280;22847;42.654;23.370;2023-08-07T11:14:14;94143.00;;;28.55;nan
36932;BME280;22847;42.654;23.370;2023-08-07T11:16:40;94163.69;;;28.50;nan
36932;BME280;22847;42.654;23.370;2023-08-07T11:19:06;94151.59;;;28.52;nan
36932;BME280;22847;42.654;23.370;2023-08-07T11:21:33;94130.94;;;28.43;nan
36932;BME280;22847;42.654;23.370;2023-08-07T11:23:59;94127.94;;;28.09;nan
36932;BME280;22847;42.654;23.370;2023-08-07T11:26:24;94127.41;;;28.12;nan
36932;BME280;22847;42.654;23.370;2023-08-07T11:28:51;94125.81;;;28.16;nan
36932;BME280;22847;42.654;23.370;2023-08-07T11:31:18;94126.63;;;28.11;nan
36932;BME280;22847;42.654;23.370;2023-08-07T11:33:44;94045.31;;;27.60;nan
36932;BME280;22847;42.654;23.370;2023-08-07T11:36:13;94139.22;;;28.16;nan
36932;BME280;22847;42.654;23.370;2023-08-07T11:41:06;94133.34;;;28.39;nan
36932;BME280;22847;42.654;23.370;2023-08-07T11:43:32;94115.91;;;28.57;nan
36932;BME280;22847;42.654;23.370;2023-08-07T11:46:06;94069.25;;;28.37;nan
36932;BME280;22847;42.654;23.370;2023-08-07T11:48:34;94138.19;;;28.88;nan
36932;BME280;22847;42.654;23.370;2023-08-07T11:51:00;94137.63;;;29.01;nan
36932;BME280;22847;42.654;23.370;2023-08-07T11:53:28;94116.72;;;28.93;nan
36932;BME280;22847;42.654;23.370;2023-08-07T11:58:39;94054.47;;;28.55;nan
36932;BME280;22847;42.654;23.370;2023-08-07T12:01:06;94129.88;;;28.89;nan
36932;BME280;22847;42.654;23.370;2023-08-07T12:03:36;94129.34;;;28.62;nan
36932;BME280;22847;42.654;23.370;2023-08-07T12:06:06;94128.00;;;28.74;nan
36932;BME280;22847;42.654;23.370;2023-08-07T12:08:39;94025.81;;;28.25;nan
36932;BME280;22847;42.654;23.370;2023-08-07T12:11:07;94037.34;;;28.26;nan
36932;BME280;22847;42.654;23.370;2023-08-07T12:13:33;94101.16;;;28.59;nan
36932;BME280;22847;42.654;23.370;2023-08-07T12:16:02;94113.53;;;28.75;nan
36932;BME280;22847;42.654;23.370;2023-08-07T12:18:30;94085.31;;;28.83;nan
36932;BME280;22847;42.654;23.370;2023-08-07T12:20:58;94108.09;;;29.06;nan
36932;BME280;22847;42.654;23.370;2023-08-07T12:23:24;94111.63;;;28.81;nan
36932;BME280;22847;42.654;23.370;2023-08-07T12:25:50;94112.97;;;28.78;nan
36932;BME280;22847;42.654;23.370;2023-08-07T12:28:17;94102.47;;;28.97;nan
36932;BME280;22847;42.654;23.370;2023-08-07T12:30:45;94104.84;;;29.14;nan
36932;BME280;22847;42.654;23.370;2023-08-07T12:33:12;94096.34;;;28.76;nan
36932;BME280;22847;42.654;23.370;2023-08-07T12:35:37;94025.00;;;28.50;nan
36932;BME280;22847;42.654;23.370;2023-08-07T12:38:03;94044.84;;;28.44;nan
36932;BME280;22847;42.654;23.370;2023-08-07T12:40:29;94016.41;;;28.03;nan
36932;BME280;22847;42.654;23.370;2023-08-07T12:42:55;94095.25;;;28.37;nan
36932;BME280;22847;42.654;23.370;2023-08-07T12:45:21;94110.78;;;28.15;nan
36932;BME280;22847;42.654;23.370;2023-08-07T12:47:46;94104.88;;;28.03;nan
36932;BME280;22847;42.654;23.370;2023-08-07T12:50:12;94141.66;;;28.32;nan
36932;BME280;22847;42.654;23.370;2023-08-07T12:52:37;94113.53;;;28.50;nan
36932;BME280;22847;42.654;23.370;2023-08-07T12:55:03;94122.09;;;28.47;nan
36932;BME280;22847;42.654;23.370;2023-08-07T12:57:30;94136.84;;;28.55;nan
36932;BME280;22847;42.654;23.370;2023-08-07T12:59:56;94054.50;;;28.10;nan
36932;BME280;22847;42.654;23.370;2023-08-07T13:02:21;94038.34;;;27.79;nan
36932;BME280;22847;42.654;23.370;2023-08-07T13:04:47;94044.28;;;27.81;nan
36932;BME280;22847;42.654;23.370;2023-08-07T13:07:12;94134.41;;;28.38;nan
36932;BME280;22847;42.654;23.370;2023-08-07T13:09:37;94109.75;;;28.26;nan
36932;BME280;22847;42.654;23.370;2023-08-07T13:12:04;94134.97;;;28.35;nan
36932;BME280;22847;42.654;23.370;2023-08-07T13:14:29;94130.66;;;28.34;nan
36932;BME280;22847;42.654;23.370;2023-08-07T13:16:54;94137.91;;;28.28;nan
36932;BME280;22847;42.654;23.370;2023-08-07T13:19:20;94127.44;;;28.27;nan
36932;BME280;22847;42.654;23.370;2023-08-07T13:21:45;94076.44;;;27.86;nan
36932;BME280;22847;42.654;23.370;2023-08-07T13:24:11;94134.66;;;28.11;nan